ADDS METAR Data INFO
IDs: Format: Raw Decoded Include TAF

Data at: 0758 UTC 23 Jul 2018

KISO 230735Z AUTO 00000KT 10SM BKN110 22/21 A2980 RMK AO2 T02170210
KISO 230715Z AUTO 00000KT 10SM CLR 22/21 A2981 RMK AO2 T02160206
KISO 230655Z AUTO 16005KT 10SM -RA SCT040 SCT060 SCT080 22/21 A2982 RMK AO2 P0001 T02150206
KISO 230635Z AUTO 18005KT 10SM SCT041 BKN049 BKN075 22/21 A2984 RMK AO2 T02150206
KISO 230615Z AUTO 17005KT 10SM SCT050 SCT075 OVC110 22/21 A2985 RMK AO2 T02150205
KISO 230555Z AUTO 20003KT 7SM -RA SCT045 SCT060 OVC110 21/20 A2982 RMK AO2 P0014 60014 T02120201 10285 20212 403300212
KISO 230535Z AUTO 21010G15KT 7SM +RA SCT026 BKN060 OVC095 22/20 A2985 RMK AO2 P0010 T02160203
KISO 230515Z AUTO 18007KT 10SM +RA SCT047 BKN060 OVC100 22/20 A2986 RMK AO2 P0002 T02230203
KISO 230455Z AUTO 21011G22KT 10SM -RA SCT020 SCT041 BKN049 23/21 A2985 RMK AO2 T02320206
KISO 230435Z AUTO 18005KT 10SM SCT025 SCT031 26/24 A2984 RMK AO2 T02610237
KISO 230415Z AUTO 13004KT 3SM BR SCT025 26/24 A2983 RMK AO2 T02630237
KISO 230355Z AUTO 13005KT 10SM SCT019 SCT027 26/24 A2983 RMK AO2 T02630236
KISO 230335Z AUTO 12005KT 10SM BKN019 OVC040 27/24 A2983 RMK AO2 T02650237
KISO 230315Z AUTO 12006KT 10SM SCT017 SCT030 BKN042 27/24 A2983 RMK AO2 T02670241
KISO 230255Z AUTO 14006KT 10SM SCT019 BKN031 BKN044 27/24 A2984 RMK AO2 T02680243
KISO 230235Z AUTO 13004KT 10SM BKN019 BKN024 BKN036 27/24 A2983 RMK AO2 T02690241
KISO 230215Z AUTO 15006KT 10SM OVC019 27/24 A2984 RMK AO2 T02710241
KISO 230155Z AUTO 16007KT 10SM BKN019 27/24 A2983 RMK AO2 T02710243
KISO 230056Z 16008KT 10SM CLR 29/24 A2978
KISO 222356Z 17007KT 10SM CLR 29/24 A2978
KISO 222256Z 10003KT 10SM SCT034 28/22 A2977
KISO 222156Z 07003KT 10SM SCT038 BKN085 25/21 A2977
KISO 222056Z 04005KT 10SM SCT033 BKN046 24/22 A2978
KISO 221956Z 28011G23KT 3SM RA SCT003 BKN031 OVC037 23/20 A2976
KISO 221856Z 17009KT 10SM SCT036 SCT045 BKN080 32/23 A2975
KISO 221756Z 17008KT 10SM BKN038 BKN046 31/22 A2976
KISO 221656Z 15012KT 10SM SCT028 BKN034 BKN060 31/22 A2978
KISO 221556Z 15010KT 10SM SCT020 BKN027 BKN046 31/24 A2978
KISO 221456Z 00000KT 10SM SCT030 28/24 A2980
KISO 221356Z 04004KT 10SM SCT015 BKN021 24/22 A2981
KISO 221256Z 07005KT 10SM SKC 22/21 A2980
KISO 221156Z 33005KT 7SM RA BKN027 BKN032 21/20 A2981
KISO 221056Z 24005G21KT 4SM RA BKN007 BKN049 OVC065 23/22 A2980
KISO 221045Z 24017G21KT 2SM +RA OVC005 24/24 A2980
KISO 221025Z 18006KT 5SM BR OVC005 25/24 A2977
KISO 221015Z AUTO 18007KT 7SM OVC005 25/24 A2978 RMK AO2 T02460237
KISO 220955Z AUTO 17005KT 7SM OVC005 25/24 A2977 RMK AO2 T02460238
KISO 220935Z AUTO 16005KT 7SM OVC007 25/24 A2976 RMK AO2 T02460238
KISO 220915Z AUTO 16005KT 7SM BKN007 OVC011 25/24 A2976 RMK AO2 T02460240
KISO 220855Z AUTO 18006KT 7SM BKN004 OVC009 25/24 A2977 RMK AO2 T02450240
KISO 220835Z AUTO 19005KT 7SM OVC004 25/24 A2977 RMK AO2 T02450240
KISO 220815Z AUTO 17003KT 5SM BR OVC004 24/24 A2976 RMK AO2 T02420237
KISO 220755Z AUTO 00000KT 5SM BR SCT004 BKN008 24/24 A2976 RMK AO2 T02420237
KISO 220735Z AUTO 15004KT 5SM BR CLR 24/24 A2976 RMK AO2 T02410235
KISO 220715Z AUTO 17003KT 7SM SCT050 SCT070 24/24 A2977 RMK AO2 T02440236
KISO 220655Z AUTO 20005KT 7SM SCT007 BKN050 BKN070 25/24 A2979 RMK AO2 T02470237
KISO 220635Z AUTO 20006KT 7SM BKN007 OVC050 25/24 A2980 RMK AO2 T02460237
KISO 220615Z AUTO 19005KT 7SM BKN007 25/24 A2980 RMK AO2 T02450235
KISO 220555Z AUTO 18007KT 10SM SCT009 25/24 A2979 RMK AO2 T02460235 10272 20229 402990216
KISO 220535Z AUTO 18007KT 10SM BKN010 25/23 A2978 RMK AO2 T02450234
KISO 220515Z AUTO 17007KT 10SM OVC010 24/23 A2978 RMK AO2 T02430228
KISO 220455Z AUTO 18005KT 10SM BKN012 24/22 A2979 RMK AO2 T02400217
KISO 220435Z AUTO 18004KT 10SM CLR 23/20 A2979 RMK AO2 T02340204
KISO 220415Z AUTO 17004KT 10SM CLR 23/20 A2979 RMK AO2 T02300199
KISO 220355Z AUTO 20004KT 10SM CLR 23/20 A2979 RMK AO2 T02310203
KISO 220335Z AUTO 20005KT 10SM SCT032 24/21 A2979 RMK AO2 T02440210
KISO 220315Z AUTO 19006KT 10SM SCT032 SCT038 BKN045 24/22 A2980 RMK AO2 T02400224
KISO 220255Z AUTO 00000KT 10SM SCT038 BKN045 BKN065 24/22 A2979 RMK AO2 T02350220
KISO 220235Z AUTO 00000KT 10SM SCT043 SCT050 BKN065 25/22 A2979 RMK AO2 T02450220
KISO 220215Z AUTO 00000KT 10SM BKN043 BKN050 BKN060 24/22 A2979 RMK AO2 T02400221
KISO 220155Z AUTO 00000KT 10SM BKN045 BKN060 24/22 A2979 RMK AO2 T02430222
KISO 220056Z 00000KT 10SM SKC 27/22 A2976
KISO 212356Z 00000KT 10SM SKC 27/22 A2976
KISO 212256Z 00000KT 10SM SCT060 29/21 A2975
KISO 212156Z 27003KT 10SM BKN050 29/21 A2975
KISO 212056Z 32009KT 10SM BKN050 29/21 A2975